MST,Max TemperatureF,Mean TemperatureF,Min TemperatureF,Max Dew PointF,MeanDew PointF,Min DewpointF,Max Humidity, Mean Humidity, Min Humidity, Max Sea Level PressureIn, Mean Sea Level PressureIn, Min Sea Level PressureIn, Max VisibilityMiles, Mean VisibilityMiles, Min VisibilityMiles, Max Wind SpeedMPH, Mean Wind SpeedMPH, Max Gust SpeedMPH,PrecipitationIn, CloudCover, Events, WindDirDegrees
2013-3-1,63,48,32,22,15,5,40,27,10,30.48,30.38,30.30,10,10,9,8,2,,0.00,0,,1
2013-3-2,63,50,36,25,23,19,57,35,12,30.41,30.27,30.08,10,10,8,6,1,,0.00,0,,276
2013-3-3,68,56,44,28,24,22,43,30,10,30.05,29.86,29.72,10,10,10,10,2,21,0.00,2,,267
2013-3-4,64,55,46,32,22,13,46,28,6,30.08,29.86,29.72,10,10,10,16,6,28,0.00,3,,285
2013-3-5,57,46,34,17,15,12,44,29,8,30.24,30.12,29.99,10,10,2,6,1,,0.00,0,,24
2013-3-6,69,53,37,22,17,12,44,25,9,30.01,29.88,29.76,10,10,10,12,2,,0.00,0,,252
2013-3-7,69,56,44,24,17,8,40,22,4,29.87,29.78,29.69,10,10,9,15,6,26,0.00,0,,201
2013-3-8,55,44,33,39,33,20,93,73,27,29.77,29.71,29.58,10,6,1,21,6,31,0.55,7,Rain-Snow,242
2013-3-9,45,39,33,37,33,30,100,87,58,30.09,29.84,29.73,10,4,0,8,2,,0.12,8,Fog-Snow,64
2013-3-10,54,46,39,35,26,20,79,45,21,30.24,30.18,30.10,10,10,6,8,4,,0.00,1,,299
2013-3-11,60,48,35,28,24,21,67,40,14,30.21,30.13,30.04,10,10,7,7,3,,0.00,0,,319
2013-3-12,64,52,39,33,28,26,65,40,13,30.21,30.15,30.09,10,10,6,10,3,,0.00,0,,20
2013-3-13,68,54,41,32,29,24,62,37,10,30.32,30.23,30.18,10,10,3,7,3,,0.00,0,,309
2013-3-14,73,58,44,29,26,21,48,30,7,30.29,30.19,30.11,10,10,9,6,2,,0.00,0,,338
2013-3-15,77,62,46,30,26,23,50,25,8,30.18,29.95,29.82,10,10,9,6,3,,0.00,0,,268
2013-3-16,72,62,53,31,26,20,38,25,8,29.82,29.75,29.68,10,10,10,18,2,29,0.00,2,,209
2013-3-17,71,60,48,27,15,3,41,19,4,29.78,29.71,29.66,10,10,10,17,6,32,0.00,0,,274
2013-3-18,68,56,45,13,7,0,27,13,4,29.94,29.87,29.79,10,10,10,9,4,17,0.00,0,,278
2013-3-19,63,57,48,26,20,9,39,24,11,30.06,29.99,29.87,10,10,7,16,4,16,0.00,3,,6
2013-3-20,69,58,46,27,25,23,41,28,9,30.05,29.90,29.73,10,10,10,9,3,16,0.00,2,,213
2013-3-21,70,58,46,29,19,9,48,23,4,29.85,29.69,29.63,10,10,10,15,5,23,0.00,0,,306
2013-3-22,66,56,44,15,0,-19,28,12,4,29.78,29.66,29.56,10,10,10,17,7,31,0.00,0,,245
2013-3-23,48,41,34,12,-1,-10,31,18,4,30.09,30.01,29.81,10,10,10,20,9,29,0.00,0,,317
2013-3-24,57,45,33,11,3,-3,27,17,6,30.10,30.03,29.91,10,10,10,13,4,,0.00,1,,40
2013-3-25,59,48,36,17,10,5,30,20,6,30.12,30.03,29.95,10,10,9,12,6,,0.00,1,,58
2013-3-26,64,53,42,19,15,11,33,22,8,29.97,29.88,29.78,10,10,10,7,2,,0.00,0,,199
2013-3-27,72,57,42,18,15,11,35,18,4,29.92,29.85,29.79,10,10,7,10,4,,0.00,0,,337
2013-3-28,72,59,46,29,20,13,30,20,6,29.99,29.92,29.86,10,10,10,9,4,,0.00,1,,7
2013-3-29,77,64,50,30,27,21,43,25,6,30.07,30.00,29.93,10,10,10,7,3,,0.00,0,,354
2013-3-30,73,62,51,29,27,23,38,25,7,30.06,29.97,29.89,10,10,10,8,3,,0.00,1,,234
2013-3-31,75,63,51,32,29,26,43,27,9,29.98,29.89,29.79,10,10,10,9,4,,0.00,0,,338